createdAt,value
2022-09-23T00:01:19.316Z,98537.63
2022-09-23T00:03:47.099Z,98531.31
2022-09-23T00:06:20.825Z,98542.69
2022-09-23T00:08:49.713Z,98542.31
2022-09-23T00:11:23.090Z,98527.94
2022-09-23T00:13:55.170Z,98533.97
2022-09-23T00:16:26.710Z,98542.56
2022-09-23T00:18:53.369Z,98540.84
2022-09-23T00:21:22.569Z,98540.13
2022-09-23T00:23:50.047Z,98541.31
2022-09-23T00:26:20.587Z,98529.09
2022-09-23T00:28:48.765Z,98527.66
2022-09-23T00:31:22.847Z,98527.56
2022-09-23T00:34:00.373Z,98539.63
2022-09-23T00:36:29.164Z,98533.06
2022-09-23T00:38:55.973Z,98534.88
2022-09-23T00:41:23.440Z,98528.03
2022-09-23T00:43:58.286Z,98522.94
2022-09-23T00:46:43.570Z,98516.09
2022-09-23T00:49:22.656Z,98519.72
2022-09-23T00:52:06.645Z,98498.22
2022-09-23T00:54:33.953Z,98510.97
2022-09-23T00:57:03.665Z,98508.72
2022-09-23T00:59:30.262Z,98521.75
2022-09-23T01:02:01.017Z,98519.03
2022-09-23T01:04:30.164Z,98512.53
2022-09-23T01:06:56.737Z,98500.44
2022-09-23T01:09:25.199Z,98503.88
2022-09-23T01:12:26.505Z,98504.53
2022-09-23T01:15:08.507Z,98502.44
2022-09-23T01:18:06.394Z,98507.25
2022-09-23T01:21:23.701Z,98497.53
2022-09-23T01:24:26.293Z,98506.66
2022-09-23T01:27:09.914Z,98495.19
2022-09-23T01:30:19.907Z,98506.28
2022-09-23T01:33:08.102Z,98500.22
2022-09-23T01:36:02.993Z,98500.91
2022-09-23T01:38:42.365Z,98508.94
2022-09-23T01:41:15.378Z,98510.19
2022-09-23T01:44:04.992Z,98504.50
2022-09-23T01:47:11.133Z,98500.09
2022-09-23T01:50:00.541Z,98490.97
2022-09-23T01:52:40.325Z,98502.06
2022-09-23T01:55:35.369Z,98489.81
2022-09-23T01:58:15.713Z,98482.84
2022-09-23T02:00:58.854Z,98487.72
2022-09-23T02:03:59.238Z,98483.72
2022-09-23T02:06:36.197Z,98486.50
2022-09-23T02:09:11.098Z,98471.88
2022-09-23T02:11:42.006Z,98480.81
2022-09-23T02:14:25.304Z,98491.25
2022-09-23T02:16:56.948Z,98487.53
2022-09-23T02:19:47.881Z,98478.38
2022-09-23T02:22:29.660Z,98467.34
2022-09-23T02:24:57.942Z,98474.91
2022-09-23T02:27:47.400Z,98479.75
2022-09-23T02:30:31.684Z,98477.22
2022-09-23T02:33:19.674Z,98480.13
2022-09-23T02:35:56.080Z,98479.28
2022-09-23T02:38:37.913Z,98459.78
2022-09-23T02:41:23.519Z,98471.22
2022-09-23T02:44:10.883Z,98480.97
2022-09-23T02:46:38.514Z,98478.75
2022-09-23T02:49:28.167Z,98473.00
2022-09-23T02:51:56.489Z,98479.84
2022-09-23T02:54:27.384Z,98478.91
2022-09-23T02:56:55.226Z,98484.38
2022-09-23T02:59:24.345Z,98465.25
2022-09-23T03:02:04.482Z,98479.84
2022-09-23T03:05:08.336Z,98474.63
2022-09-23T03:08:07.132Z,98469.09
2022-09-23T03:11:04.333Z,98474.31
2022-09-23T03:14:24.863Z,98474.63
2022-09-23T03:17:10.512Z,98476.44
2022-09-23T03:19:55.918Z,98464.56
2022-09-23T03:22:39.411Z,98467.63
2022-09-23T03:25:15.924Z,98464.69
2022-09-23T03:27:45.826Z,98460.44
2022-09-23T03:30:14.325Z,98460.41
2022-09-23T03:32:47.032Z,98453.44
2022-09-23T03:35:14.626Z,98450.66
2022-09-23T03:38:12.032Z,98443.75
2022-09-23T03:40:47.711Z,98447.66
2022-09-23T03:43:14.803Z,98442.00
2022-09-23T03:45:42.605Z,98444.09
2022-09-23T03:48:09.418Z,98430.91
2022-09-23T03:50:39.139Z,98430.78
2022-09-23T03:53:05.681Z,98437.28
2022-09-23T03:55:32.432Z,98430.16
2022-09-23T03:58:00.212Z,98433.38
2022-09-23T04:00:27.714Z,98432.56
2022-09-23T04:02:54.752Z,98419.38
2022-09-23T04:05:21.313Z,98445.59
2022-09-23T04:07:49.133Z,98429.34
2022-09-23T04:10:15.976Z,98427.72
2022-09-23T04:12:42.578Z,98421.72
2022-09-23T04:15:09.848Z,98435.19
2022-09-23T04:17:36.458Z,98424.00
2022-09-23T04:20:04.027Z,98435.72
2022-09-23T04:22:31.314Z,98416.06
2022-09-23T04:24:57.936Z,98414.31
2022-09-23T04:27:24.722Z,98427.28
2022-09-23T04:29:51.421Z,98420.25
2022-09-23T04:32:18.065Z,98421.41
2022-09-23T04:34:44.660Z,98423.06
2022-09-23T04:37:11.289Z,98409.34
2022-09-23T04:39:37.923Z,98436.06
2022-09-23T04:42:04.599Z,98433.13
2022-09-23T04:44:31.269Z,98416.22
2022-09-23T04:46:58.473Z,98406.78
2022-09-23T04:49:26.180Z,98410.03
2022-09-23T04:51:52.856Z,98415.25
2022-09-23T04:54:19.956Z,98409.69
2022-09-23T04:56:46.563Z,98402.88
2022-09-23T04:59:13.202Z,98423.50
2022-09-23T05:01:39.956Z,98402.00
2022-09-23T05:04:11.587Z,98418.09
2022-09-23T05:06:38.437Z,98427.53
2022-09-23T05:09:08.098Z,98415.53
2022-09-23T05:11:35.319Z,98418.09
2022-09-23T05:14:02.197Z,98413.44
2022-09-23T05:16:29.399Z,98420.13
2022-09-23T05:18:57.902Z,98414.50
2022-09-23T05:21:32.162Z,98432.38
2022-09-23T05:24:00.885Z,98413.53
2022-09-23T05:26:31.642Z,98414.00
2022-09-23T05:28:59.728Z,98418.72
2022-09-23T05:31:30.453Z,98433.50
2022-09-23T05:34:03.809Z,98424.00
2022-09-23T05:36:37.967Z,98433.31
2022-09-23T05:39:07.733Z,98434.06
2022-09-23T05:41:34.573Z,98435.41
2022-09-23T05:44:02.163Z,98438.97
2022-09-23T05:46:31.735Z,98443.50
2022-09-23T05:49:03.089Z,98426.41
2022-09-23T05:51:31.615Z,98430.16
2022-09-23T05:54:00.173Z,98434.63
2022-09-23T05:56:28.476Z,98440.50
2022-09-23T05:58:58.526Z,98440.50
2022-09-23T06:01:29.051Z,98441.13
2022-09-23T06:03:57.940Z,98442.47
2022-09-23T06:06:31.865Z,98425.47
2022-09-23T06:09:00.124Z,98435.41
2022-09-23T06:11:30.592Z,98430.19
2022-09-23T06:14:00.967Z,98440.06
2022-09-23T06:16:30.069Z,98423.91
2022-09-23T06:18:58.862Z,98432.00
2022-09-23T06:21:28.417Z,98435.66
2022-09-23T06:23:57.270Z,98442.09
2022-09-23T06:26:23.926Z,98419.28
2022-09-23T06:28:50.456Z,98427.84
2022-09-23T06:31:17.709Z,98434.13
2022-09-23T06:33:46.257Z,98435.75
2022-09-23T06:36:28.170Z,98419.69
2022-09-23T06:39:02.300Z,98422.28
2022-09-23T06:41:29.446Z,98436.66
2022-09-23T06:43:56.035Z,98427.28
2022-09-23T06:46:22.671Z,98433.31
2022-09-23T06:48:51.094Z,98436.13
2022-09-23T06:51:24.097Z,98426.38
2022-09-23T06:53:50.765Z,98436.38
2022-09-23T06:56:19.808Z,98430.78
2022-09-23T06:58:54.836Z,98444.28
2022-09-23T07:01:22.718Z,98439.13
2022-09-23T07:03:49.818Z,98439.63
2022-09-23T07:06:17.420Z,98435.53
2022-09-23T07:08:49.221Z,98428.50
2022-09-23T07:11:16.195Z,98428.38
2022-09-23T07:13:43.189Z,98418.00
2022-09-23T07:16:11.494Z,98416.66
2022-09-23T07:18:39.163Z,98429.91
2022-09-23T07:21:15.883Z,98423.84
2022-09-23T07:23:47.771Z,98424.66
2022-09-23T07:26:16.926Z,98430.34
2022-09-23T07:28:44.147Z,98432.88
2022-09-23T07:31:15.490Z,98413.66
2022-09-23T07:33:44.089Z,98421.47
2022-09-23T07:36:17.186Z,98421.72
2022-09-23T07:38:47.352Z,98421.38
2022-09-23T07:41:19.983Z,98406.84
2022-09-23T07:43:47.627Z,98430.97
2022-09-23T07:46:18.119Z,98425.47
2022-09-23T07:48:46.132Z,98430.53
2022-09-23T07:51:36.293Z,98433.66
2022-09-23T07:54:05.331Z,98425.75
2022-09-23T07:56:31.958Z,98432.47
2022-09-23T07:59:03.141Z,98412.44
2022-09-23T08:01:40.538Z,98425.38
2022-09-23T08:04:29.823Z,98419.31
2022-09-23T08:07:05.242Z,98421.72
2022-09-23T08:09:41.395Z,98419.72
2022-09-23T08:12:15.934Z,98406.50
2022-09-23T08:14:43.163Z,98426.38
2022-09-23T08:17:12.313Z,98408.72
2022-09-23T08:19:38.903Z,98418.41
2022-09-23T08:22:06.676Z,98399.34
2022-09-23T08:24:33.309Z,98405.53
2022-09-23T08:27:00.101Z,98400.50
2022-09-23T08:29:26.979Z,98398.13
2022-09-23T08:31:54.187Z,98405.66
2022-09-23T08:34:22.764Z,98389.97
2022-09-23T08:36:53.849Z,98397.63
2022-09-23T08:39:22.756Z,98408.84
2022-09-23T08:41:58.430Z,98402.22
2022-09-23T08:44:48.215Z,98387.84
2022-09-23T08:47:24.888Z,98405.31
2022-09-23T08:50:06.502Z,98388.78
2022-09-23T08:52:59.463Z,98380.34
2022-09-23T08:55:46.156Z,98397.25
2022-09-23T08:58:49.479Z,98394.78
2022-09-23T09:01:47.922Z,98395.47
2022-09-23T09:04:33.681Z,98387.13
2022-09-23T09:07:35.788Z,98381.84
2022-09-23T09:10:22.880Z,98381.41
2022-09-23T09:13:04.953Z,98374.81
2022-09-23T09:15:55.096Z,98376.88
2022-09-23T09:18:25.066Z,98352.09
2022-09-23T09:21:23.123Z,98362.13
2022-09-23T09:24:03.784Z,98364.91
2022-09-23T09:26:54.047Z,98349.69
2022-09-23T09:29:36.179Z,98362.66
2022-09-23T09:32:29.758Z,98359.63
2022-09-23T09:35:20.759Z,98360.03
2022-09-23T09:37:59.006Z,98378.47
2022-09-23T09:40:30.776Z,98339.91
2022-09-23T09:43:25.210Z,98353.09
2022-09-23T09:46:22.789Z,98359.56
2022-09-23T09:49:02.234Z,98350.84
2022-09-23T09:51:52.722Z,98332.91
2022-09-23T09:54:37.109Z,98330.16
2022-09-23T09:58:00.509Z,98338.28
2022-09-23T10:00:41.216Z,98330.84
2022-09-23T10:06:33.049Z,98345.31
2022-09-23T10:09:02.166Z,98330.81
2022-09-23T10:11:37.694Z,98307.56
2022-09-23T10:15:22.365Z,98316.84
2022-09-23T10:17:41.952Z,98308.22
2022-09-23T10:20:20.634Z,98324.06
2022-09-23T10:26:40.433Z,98316.88
2022-09-23T10:30:36.620Z,98312.38
2022-09-23T10:35:44.925Z,98285.22
2022-09-23T10:38:26.013Z,98305.72
2022-09-23T10:41:50.495Z,98297.13
2022-09-23T10:45:16.807Z,98289.28
2022-09-23T10:49:55.230Z,98286.34
2022-09-23T10:52:04.295Z,98298.56
2022-09-23T10:57:12.313Z,98286.41
2022-09-23T10:59:04.345Z,98272.69
2022-09-23T11:02:19.184Z,98280.72
2022-09-23T11:05:39.685Z,98259.63
2022-09-23T11:08:38.809Z,98264.47
2022-09-23T11:11:37.097Z,98270.41
2022-09-23T12:10:59.963Z,98218.47
2022-09-23T12:14:43.618Z,98215.94
2022-09-23T12:21:57.601Z,98186.00
2022-09-23T12:25:09.498Z,98206.00
2022-09-23T12:27:58.857Z,98188.66
2022-09-23T12:30:58.518Z,98193.41
2022-09-23T12:33:36.591Z,98191.47
2022-09-23T12:36:14.756Z,98182.13
2022-09-23T12:38:51.775Z,98178.75
2022-09-23T12:41:37.751Z,98189.41
2022-09-23T12:47:28.265Z,98177.84
2022-09-23T12:50:17.094Z,98169.69
2022-09-23T12:52:55.401Z,98160.72
2022-09-23T12:55:41.930Z,98166.50
2022-09-23T12:59:54.369Z,98164.34
2022-09-23T13:03:09.303Z,98161.94
2022-09-23T13:09:07.165Z,98146.25
2022-09-23T13:11:50.557Z,98145.75
2022-09-23T13:14:53.010Z,98151.22
2022-09-23T13:21:51.306Z,98137.41
2022-09-23T13:24:55.211Z,98137.03
2022-09-23T13:30:38.106Z,98121.22
2022-09-23T14:24:40.855Z,98095.72
2022-09-23T14:42:44.716Z,98064.06
2022-09-23T14:45:50.327Z,98063.50
2022-09-23T14:48:36.160Z,98058.44
2022-09-23T14:51:16.964Z,98067.56
2022-09-23T14:54:37.903Z,98045.69
2022-09-23T14:56:58.531Z,98040.38
2022-09-23T14:59:49.400Z,98049.91
2022-09-23T15:02:45.582Z,98038.50
2022-09-23T15:05:20.067Z,98065.91
2022-09-23T15:08:00.668Z,98044.09
2022-09-23T15:10:41.468Z,98035.56
2022-09-23T15:13:23.820Z,98041.13
2022-09-23T15:16:17.193Z,98037.03
2022-09-23T15:19:02.143Z,98029.50
2022-09-23T15:21:45.468Z,98037.63
2022-09-23T15:24:47.669Z,98051.97
2022-09-23T15:27:34.177Z,98048.34
2022-09-23T15:30:15.714Z,98026.19
2022-09-23T15:32:47.033Z,98039.47
2022-09-23T15:35:26.625Z,98029.88
2022-09-23T15:38:25.225Z,98023.44
2022-09-23T15:40:55.115Z,98035.09
2022-09-23T15:43:51.592Z,98019.38
2022-09-23T15:46:34.959Z,98030.84
2022-09-23T15:49:51.130Z,98027.81
2022-09-23T15:52:24.198Z,98028.03
2022-09-23T15:54:53.538Z,98013.72
2022-09-23T15:57:30.651Z,98033.03
2022-09-23T15:59:58.474Z,98029.47
2022-09-23T16:02:37.104Z,98027.53
2022-09-23T16:05:06.445Z,98028.59
2022-09-23T16:07:47.211Z,98036.16
2022-09-23T16:10:18.883Z,98019.28
2022-09-23T16:12:45.812Z,98020.84
2022-09-23T16:15:19.863Z,98034.31
2022-09-23T16:17:52.522Z,98017.44
2022-09-23T16:20:24.345Z,98014.16
2022-09-23T16:23:24.875Z,98007.41
2022-09-23T16:25:58.875Z,98017.97
2022-09-23T16:28:27.920Z,98018.50
2022-09-23T16:30:57.249Z,97996.56
2022-09-23T16:33:23.956Z,98020.75
2022-09-23T16:35:53.522Z,98003.88
2022-09-23T16:38:21.054Z,97988.09
2022-09-23T16:40:47.771Z,97998.44
2022-09-23T16:43:14.465Z,98000.66
2022-09-23T16:45:41.262Z,98005.72
2022-09-23T16:48:07.941Z,97996.78
2022-09-23T16:50:54.275Z,97997.94
2022-09-23T16:53:29.847Z,98006.38
2022-09-23T16:55:59.172Z,98013.41
2022-09-23T16:58:48.621Z,97998.59
2022-09-23T17:01:44.828Z,98022.03
2022-09-23T17:04:13.211Z,98017.06
2022-09-23T17:06:51.802Z,98004.63
2022-09-23T17:09:21.680Z,97992.63
2022-09-23T17:12:07.321Z,97996.16
2022-09-23T17:14:39.932Z,97999.69
2022-09-23T17:17:06.668Z,97992.06
2022-09-23T17:19:36.876Z,98001.34
2022-09-23T17:22:03.786Z,97999.25
2022-09-23T17:24:30.434Z,97986.63
2022-09-23T17:26:57.086Z,98002.38
2022-09-23T17:29:29.837Z,97996.66
2022-09-23T17:31:56.503Z,97997.22
2022-09-23T17:34:24.121Z,98002.75
2022-09-23T17:36:51.130Z,97979.47
2022-09-23T17:39:17.959Z,97996.97
2022-09-23T17:41:47.542Z,97998.47
2022-09-23T17:44:16.195Z,98003.66
2022-09-23T17:46:48.465Z,97997.16
2022-09-23T17:49:27.468Z,97995.34
2022-09-23T17:51:59.253Z,97993.25
2022-09-23T17:54:28.491Z,98012.31
2022-09-23T17:57:01.147Z,97999.09
2022-09-23T18:00:02.765Z,97984.31
2022-09-23T18:02:35.617Z,97994.44
2022-09-23T18:05:06.939Z,98005.00
2022-09-23T18:07:55.579Z,97999.03
2022-09-23T18:10:22.243Z,98013.19
2022-09-23T18:12:50.112Z,98005.59
2022-09-23T18:15:19.946Z,98002.63
2022-09-23T18:17:46.854Z,97992.06
2022-09-23T18:20:15.391Z,98005.28
2022-09-23T18:22:42.027Z,97985.88
2022-09-23T18:25:28.551Z,97994.13
2022-09-23T18:27:58.618Z,98005.16
2022-09-23T18:30:25.555Z,98002.03
2022-09-23T18:32:52.650Z,97993.22
2022-09-23T18:35:19.917Z,97981.38
2022-09-23T18:37:46.544Z,97983.03
2022-09-23T18:40:14.793Z,97997.88
2022-09-23T18:42:41.531Z,97998.06
2022-09-23T18:45:10.343Z,98002.97
2022-09-23T18:47:55.418Z,97991.16
2022-09-23T18:50:43.664Z,97997.41
2022-09-23T18:53:10.933Z,98012.41
2022-09-23T18:55:38.943Z,98006.63
2022-09-23T18:58:08.195Z,98004.22
2022-09-23T19:00:35.085Z,98004.69
2022-09-23T19:03:02.506Z,97982.19
2022-09-23T19:05:29.457Z,98014.28
2022-09-23T19:07:56.315Z,98004.94
2022-09-23T19:10:23.104Z,97987.91
2022-09-23T19:12:49.741Z,97994.59
2022-09-23T19:15:16.528Z,98010.44
2022-09-23T19:17:43.654Z,97994.63
2022-09-23T19:20:11.551Z,97983.28
2022-09-23T19:22:38.293Z,98008.31
2022-09-23T19:25:06.709Z,98005.25
2022-09-23T19:27:34.584Z,97986.81
2022-09-23T19:30:01.243Z,98004.72
2022-09-23T19:32:27.925Z,98002.81
2022-09-23T19:34:54.595Z,98005.19
2022-09-23T19:37:21.249Z,97999.91
2022-09-23T19:39:48.170Z,98012.47
2022-09-23T19:42:14.779Z,98020.66
2022-09-23T19:44:41.398Z,98013.19
2022-09-23T19:47:15.193Z,98014.59
2022-09-23T19:49:41.842Z,98012.13
2022-09-23T19:52:08.549Z,98001.66
2022-09-23T19:54:35.118Z,97997.69
2022-09-23T19:57:01.763Z,97991.09
2022-09-23T19:59:28.373Z,97996.06
2022-09-23T20:01:55.199Z,97998.88
2022-09-23T20:04:23.277Z,97993.38
2022-09-23T20:06:50.032Z,98006.06
2022-09-23T20:09:17.015Z,97983.66
2022-09-23T20:11:44.867Z,98001.22
2022-09-23T20:14:11.892Z,98001.22
2022-09-23T20:16:38.649Z,98006.53
2022-09-23T20:19:05.845Z,97990.81
2022-09-23T20:21:34.258Z,98000.47
2022-09-23T20:24:07.517Z,98004.41
2022-09-23T20:26:52.791Z,97991.53
2022-09-23T20:29:19.581Z,97985.16
2022-09-23T20:31:46.399Z,97993.16
2022-09-23T20:34:13.679Z,97970.94
2022-09-23T20:36:41.668Z,97983.88
2022-09-23T20:39:10.422Z,97973.34
2022-09-23T20:41:39.714Z,97990.69
2022-09-23T20:44:15.985Z,97985.09
2022-09-23T20:46:48.271Z,97990.31
2022-09-23T20:49:19.277Z,97993.44
2022-09-23T20:51:49.017Z,97981.16
2022-09-23T20:54:19.150Z,97977.94
2022-09-23T20:56:47.092Z,97983.56
2022-09-23T20:59:14.866Z,97986.63
2022-09-23T21:01:42.800Z,97984.25
2022-09-23T21:04:11.068Z,97985.66
2022-09-23T21:06:39.679Z,97993.81
2022-09-23T21:09:07.196Z,97990.13
2022-09-23T21:11:34.368Z,97977.22
2022-09-23T21:14:01.436Z,97985.28
2022-09-23T21:16:28.558Z,97971.69
2022-09-23T21:18:55.656Z,97973.97
2022-09-23T21:21:22.451Z,97972.13
2022-09-23T21:23:50.829Z,97978.59
2022-09-23T21:26:26.417Z,97981.47
2022-09-23T21:28:58.699Z,97978.66
2022-09-23T21:31:35.581Z,97974.44
2022-09-23T21:34:07.985Z,97975.44
2022-09-23T21:36:37.741Z,97966.59
2022-09-23T21:39:07.048Z,97974.25
2022-09-23T21:41:35.221Z,97985.22
2022-09-23T21:44:04.415Z,97963.78
2022-09-23T21:46:35.640Z,97974.25
2022-09-23T21:49:05.115Z,97969.84
2022-09-23T21:51:40.639Z,97961.84
2022-09-23T21:54:14.139Z,97976.31
2022-09-23T21:56:41.773Z,97974.91
2022-09-23T21:59:09.080Z,97972.34
2022-09-23T22:01:40.893Z,97973.53
2022-09-23T22:04:15.714Z,97952.22
2022-09-23T22:06:43.028Z,97955.03
2022-09-23T22:09:15.613Z,97969.50
2022-09-23T22:12:01.502Z,97958.00
2022-09-23T22:14:29.470Z,97950.75
2022-09-23T22:17:01.327Z,97957.56
2022-09-23T22:19:34.982Z,97949.34
2022-09-23T22:22:08.249Z,97940.66
2022-09-23T22:24:34.907Z,97954.59
2022-09-23T22:27:01.807Z,97936.44
2022-09-23T22:29:46.843Z,97939.69
2022-09-23T22:32:32.168Z,97928.38
2022-09-23T22:34:59.222Z,97936.88
2022-09-23T22:37:30.476Z,97941.28
2022-09-23T22:39:57.533Z,97942.50
2022-09-23T22:42:24.201Z,97945.47
2022-09-23T22:44:51.640Z,97950.19
2022-09-23T22:47:20.062Z,97947.94
2022-09-23T22:49:49.116Z,97932.47
2022-09-23T22:52:21.285Z,97945.34
2022-09-23T22:54:48.154Z,97944.09
2022-09-23T22:57:15.388Z,97936.44
2022-09-23T22:59:48.271Z,97944.34
2022-09-23T23:02:19.107Z,97941.16
2022-09-23T23:04:50.894Z,97940.13
2022-09-23T23:07:20.933Z,97950.69
2022-09-23T23:09:52.252Z,97956.34
2022-09-23T23:12:20.459Z,97957.16
2022-09-23T23:14:49.414Z,97955.28
2022-09-23T23:17:17.143Z,97945.97
2022-09-23T23:19:43.894Z,97940.13
2022-09-23T23:22:10.580Z,97931.69
2022-09-23T23:24:37.446Z,97937.50
2022-09-23T23:27:04.193Z,97941.38
2022-09-23T23:29:31.392Z,97943.00
2022-09-23T23:31:58.295Z,97937.72
2022-09-23T23:34:25.244Z,97940.59
2022-09-23T23:36:56.496Z,97921.19
2022-09-23T23:39:25.116Z,97942.59
2022-09-23T23:41:55.938Z,97936.59
2022-09-23T23:44:25.417Z,97917.25
2022-09-23T23:46:53.907Z,97933.78
2022-09-23T23:49:21.500Z,97918.09
2022-09-23T23:51:48.514Z,97915.81
2022-09-23T23:54:15.758Z,97912.22
2022-09-23T23:56:43.957Z,97916.41
2022-09-23T23:59:10.746Z,97927.28
